Jasper, Illinois
Current Conditions -  °F | °C
As of 10:35 PM on Wednesday 22 Oct 2014 (Local Time) from KFWC Reporting Station
Clear Clear  
Wind Chill: 40°   Ceiling: Unl
Heat Index: 40°   Visibility: 10mi
Dew Point: 40°   Wind: 0mph
Humidity: 97%   Direction: NA
Pressure: 30.24"   Gusts: NA
Location:  38.3669°N, 88.3516°W
Report Text: KFWC 230335Z AUTO 00000KT 10SM CLR 05/04 A3024 RMK AO1 T00470043
Loading
Personal Weather Stations






























Interactive Weather Map
Tropical Storm Tracking
New forecast layout! Learn more

10-Day Weather Forecast

Advertisements
Track Severe Weather on mobile